Time;durP1;ratioP1;P1;durP2;ratioP2;P2;SDS_P1;SDS_P2;PMS_P1;PMS_P2;Temp;Humidity;BMP_temperature;BMP_pressure;BME280_temperature;BME280_humidity;BME280_pressure;Samples;Min_cycle;Max_cycle;Signal;HPM_P1;HPM_P2
2022/04/17 00:01:33;;;;;;;6.47;4.00;;;;;;;;;;5047344;28;20047;-68
2022/04/17 00:03:59;;;;;;;6.47;4.07;;;;;;;;;;5047413;28;20500;-68
2022/04/17 00:06:25;;;;;;;7.22;3.92;;;;;;;;;;5038063;28;20050;-68
2022/04/17 00:08:51;;;;;;;5.97;4.00;;;;;;;;;;5047649;28;20047;-68
2022/04/17 00:11:17;;;;;;;6.38;3.75;;;;;;;;;;5047873;28;20037;-69
2022/04/17 00:13:44;;;;;;;7.65;4.43;;;;;;;;;;5047677;28;20048;-68
2022/04/17 00:16:10;;;;;;;7.32;4.05;;;;;;;;;;5047828;28;20041;-68
2022/04/17 00:18:37;;;;;;;7.03;4.40;;;;;;;;;;5047552;28;20140;-68
2022/04/17 00:21:04;;;;;;;7.63;4.90;;;;;;;;;;5047535;28;20037;-68
2022/04/17 00:23:32;;;;;;;7.78;4.63;;;;;;;;;;5047329;28;20352;-67
2022/04/17 00:25:58;;;;;;;9.15;5.13;;;;;;;;;;5047361;28;20144;-67
2022/04/17 00:28:24;;;;;;;7.47;4.40;;;;;;;;;;5046778;28;20131;-67
2022/04/17 00:30:50;;;;;;;7.97;4.80;;;;;;;;;;5047197;28;20473;-68
2022/04/17 00:33:16;;;;;;;8.25;4.60;;;;;;;;;;5047323;28;20124;-67
2022/04/17 00:35:44;;;;;;;8.68;4.60;;;;;;;;;;5047047;28;20057;-68
2022/04/17 00:38:11;;;;;;;6.97;4.55;;;;;;;;;;5032449;28;20117;-68
2022/04/17 00:40:37;;;;;;;5.80;4.15;;;;;;;;;;5046790;28;20399;-67
2022/04/17 00:43:18;;;;;;;8.95;5.18;;;;;;;;;;5046584;28;20401;-68
2022/04/17 00:45:44;;;;;;;7.22;4.70;;;;;;;;;;5047140;28;20048;-68
2022/04/17 00:48:10;;;;;;;6.63;4.50;;;;;;;;;;5046323;28;20559;-69
2022/04/17 00:50:36;;;;;;;18.00;5.68;;;;;;;;;;5046062;28;20044;-68
2022/04/17 00:53:02;;;;;;;7.15;4.50;;;;;;;;;;5046755;28;20068;-68
2022/04/17 00:55:28;;;;;;;10.40;4.80;;;;;;;;;;5046697;28;20061;-68
2022/04/17 00:57:54;;;;;;;9.75;5.00;;;;;;;;;;5045815;28;20044;-68
2022/04/17 01:00:20;;;;;;;9.77;4.47;;;;;;;;;;5046431;28;20491;-67
2022/04/17 01:02:47;;;;;;;9.13;4.65;;;;;;;;;;5037572;28;20504;-67
2022/04/17 01:05:13;;;;;;;14.43;4.60;;;;;;;;;;5046281;28;20581;-67
2022/04/17 01:07:39;;;;;;;7.20;4.20;;;;;;;;;;5036053;28;20065;-67
2022/04/17 01:10:07;;;;;;;9.00;4.97;;;;;;;;;;5046343;28;20036;-68
2022/04/17 01:12:35;;;;;;;10.27;5.13;;;;;;;;;;5044066;28;20094;-67
2022/04/17 01:15:02;;;;;;;8.10;5.03;;;;;;;;;;5045942;28;20040;-67
2022/04/17 01:17:28;;;;;;;9.45;5.65;;;;;;;;;;5046207;28;20584;-67
2022/04/17 01:19:54;;;;;;;10.50;5.43;;;;;;;;;;5045758;28;20040;-67
2022/04/17 01:22:20;;;;;;;12.05;5.93;;;;;;;;;;5046220;28;20041;-67
2022/04/17 01:27:31;;;;;;;8.75;6.40;;;;;;;;;;5044921;28;20055;-68
2022/04/17 01:29:57;;;;;;;9.02;6.25;;;;;;;;;;5046017;28;20076;-67
2022/04/17 01:32:23;;;;;;;10.88;6.22;;;;;;;;;;5046007;28;20068;-68
2022/04/17 01:34:50;;;;;;;8.48;5.82;;;;;;;;;;5046497;28;20040;-68
2022/04/17 01:37:17;;;;;;;10.80;6.78;;;;;;;;;;5036806;28;20057;-68
2022/04/17 01:39:44;;;;;;;16.92;7.10;;;;;;;;;;5049532;28;20057;-68
2022/04/17 01:42:11;;;;;;;12.68;6.40;;;;;;;;;;5050009;28;20051;-68
2022/04/17 01:44:37;;;;;;;12.32;6.60;;;;;;;;;;5050610;28;20099;-68
2022/04/17 01:47:03;;;;;;;10.20;6.63;;;;;;;;;;5041696;28;20037;-68
2022/04/17 01:49:30;;;;;;;10.32;6.97;;;;;;;;;;5049862;28;20132;-68
2022/04/17 01:51:56;;;;;;;9.55;6.68;;;;;;;;;;5049414;28;20394;-68
2022/04/17 01:54:25;;;;;;;10.27;6.80;;;;;;;;;;5050299;28;20090;-68
2022/04/17 01:56:51;;;;;;;11.18;7.15;;;;;;;;;;5049936;28;20520;-68
2022/04/17 01:59:18;;;;;;;11.73;7.10;;;;;;;;;;5048768;28;20460;-68
2022/04/17 02:01:44;;;;;;;9.50;6.80;;;;;;;;;;5047852;28;20047;-68
2022/04/17 02:04:11;;;;;;;11.63;7.05;;;;;;;;;;5049989;28;20124;-69
2022/04/17 02:06:41;;;;;;;10.15;6.90;;;;;;;;;;5049844;28;20045;-68
2022/04/17 02:09:08;;;;;;;10.52;7.35;;;;;;;;;;5047663;28;20127;-68
2022/04/17 02:11:34;;;;;;;9.43;6.72;;;;;;;;;;5049450;28;20472;-67
2022/04/17 02:14:00;;;;;;;10.25;7.05;;;;;;;;;;5049842;28;20482;-67
2022/04/17 02:16:26;;;;;;;12.95;7.63;;;;;;;;;;5049910;28;20043;-67
2022/04/17 02:18:53;;;;;;;13.93;7.25;;;;;;;;;;5050001;28;20037;-67
2022/04/17 02:21:19;;;;;;;9.48;7.05;;;;;;;;;;5050027;28;20043;-67
2022/04/17 02:23:46;;;;;;;9.80;7.38;;;;;;;;;;5049844;28;20079;-67
2022/04/17 02:26:13;;;;;;;10.70;7.25;;;;;;;;;;5050074;28;20037;-67
2022/04/17 02:28:40;;;;;;;10.30;7.15;;;;;;;;;;5048097;28;20044;-67
2022/04/17 02:31:08;;;;;;;11.70;7.63;;;;;;;;;;5049562;28;20048;-67
2022/04/17 02:33:35;;;;;;;11.50;6.78;;;;;;;;;;5049684;28;20126;-67
2022/04/17 02:36:01;;;;;;;12.85;7.63;;;;;;;;;;5048594;28;20057;-66
2022/04/17 02:38:27;;;;;;;9.57;6.93;;;;;;;;;;5049763;28;20053;-66
2022/04/17 02:40:54;;;;;;;9.85;7.22;;;;;;;;;;5049784;28;20086;-67
2022/04/17 02:43:20;;;;;;;13.57;7.85;;;;;;;;;;5049840;28;20045;-67
2022/04/17 02:45:46;;;;;;;12.88;8.15;;;;;;;;;;5049244;28;20041;-67
2022/04/17 02:48:12;;;;;;;10.80;7.47;;;;;;;;;;5049481;28;20387;-67
2022/04/17 02:50:39;;;;;;;11.32;7.15;;;;;;;;;;5039245;28;20055;-66
2022/04/17 02:53:06;;;;;;;11.13;7.47;;;;;;;;;;5049540;28;20041;-66
2022/04/17 02:55:32;;;;;;;11.82;7.05;;;;;;;;;;5048741;28;20033;-66
2022/04/17 02:57:58;;;;;;;10.95;6.93;;;;;;;;;;5049032;28;20044;-67
2022/04/17 03:00:26;;;;;;;10.00;7.20;;;;;;;;;;5049026;28;20450;-67
2022/04/17 03:05:38;;;;;;;11.07;7.60;;;;;;;;;;5049106;28;20073;-67
2022/04/17 03:08:04;;;;;;;12.43;7.97;;;;;;;;;;5048320;28;20037;-66
2022/04/17 03:10:31;;;;;;;13.70;8.10;;;;;;;;;;5049061;28;20099;-66
2022/04/17 03:12:57;;;;;;;12.90;8.13;;;;;;;;;;5049306;28;20080;-68
2022/04/17 03:15:23;;;;;;;15.60;8.27;;;;;;;;;;5047860;28;20045;-67
2022/04/17 03:17:49;;;;;;;9.88;7.43;;;;;;;;;;5048808;28;20048;-67
2022/04/17 03:20:15;;;;;;;12.90;7.78;;;;;;;;;;5036341;28;20036;-67
2022/04/17 03:22:42;;;;;;;10.98;8.23;;;;;;;;;;5048877;28;20048;-67
2022/04/17 03:25:09;;;;;;;12.65;8.05;;;;;;;;;;5048332;28;20048;-68
2022/04/17 03:27:35;;;;;;;12.30;8.48;;;;;;;;;;5049191;28;20048;-67
2022/04/17 03:30:01;;;;;;;11.90;8.68;;;;;;;;;;5048360;28;20041;-68
2022/04/17 03:32:27;;;;;;;13.35;8.95;;;;;;;;;;5048470;28;20049;-67
2022/04/17 03:34:54;;;;;;;13.75;8.43;;;;;;;;;;5048272;28;20584;-67
2022/04/17 03:37:20;;;;;;;30.27;9.60;;;;;;;;;;5046061;28;20048;-66
2022/04/17 03:39:48;;;;;;;16.38;8.35;;;;;;;;;;5049256;28;20045;-67
2022/04/17 03:42:15;;;;;;;16.52;9.10;;;;;;;;;;5048915;28;20056;-67
2022/04/17 03:44:41;;;;;;;11.80;8.05;;;;;;;;;;5048830;28;20080;-66
2022/04/17 03:47:07;;;;;;;26.10;9.77;;;;;;;;;;5048376;28;20052;-66
2022/04/17 03:49:34;;;;;;;12.13;7.78;;;;;;;;;;5035815;28;20040;-66
2022/04/17 03:52:00;;;;;;;13.02;7.57;;;;;;;;;;5048380;28;20045;-66
2022/04/17 03:54:26;;;;;;;14.00;7.55;;;;;;;;;;5048264;28;20167;-66
2022/04/17 03:56:52;;;;;;;15.93;8.63;;;;;;;;;;5048149;28;20383;-66
2022/04/17 03:59:18;;;;;;;14.38;8.15;;;;;;;;;;5048351;28;20440;-65
2022/04/17 04:01:48;;;;;;;11.75;8.25;;;;;;;;;;5047930;28;20339;-68
2022/04/17 04:04:15;;;;;;;10.82;7.72;;;;;;;;;;5047827;28;20052;-68
2022/04/17 04:06:41;;;;;;;10.63;8.07;;;;;;;;;;5048584;28;20118;-68
2022/04/17 04:09:07;;;;;;;10.10;7.53;;;;;;;;;;5048123;28;20158;-68
2022/04/17 04:11:33;;;;;;;15.05;8.38;;;;;;;;;;5048136;28;20717;-68
2022/04/17 04:13:59;;;;;;;12.27;7.82;;;;;;;;;;5036086;28;20426;-68
2022/04/17 04:16:25;;;;;;;15.65;8.15;;;;;;;;;;5048364;28;20049;-68
2022/04/17 04:18:51;;;;;;;16.83;8.38;;;;;;;;;;5048178;28;20126;-68
2022/04/17 04:21:18;;;;;;;11.68;7.57;;;;;;;;;;5048192;28;20041;-65
2022/04/17 04:23:44;;;;;;;11.10;7.90;;;;;;;;;;5048363;28;20076;-65
2022/04/17 04:26:10;;;;;;;9.80;7.85;;;;;;;;;;5047071;28;20584;-65
2022/04/17 04:28:36;;;;;;;11.30;7.90;;;;;;;;;;5039445;28;20044;-65
2022/04/17 04:31:08;;;;;;;16.05;7.47;;;;;;;;;;5048199;28;20049;-65
2022/04/17 04:33:39;;;;;;;14.68;7.80;;;;;;;;;;5046204;28;20124;-66
2022/04/17 04:36:06;;;;;;;10.88;7.28;;;;;;;;;;5044109;28;20048;-66
2022/04/17 04:38:32;;;;;;;13.02;7.78;;;;;;;;;;5047318;28;20423;-66
2022/04/17 04:41:01;;;;;;;11.88;7.68;;;;;;;;;;5048002;28;20403;-69
2022/04/17 04:43:28;;;;;;;11.77;7.28;;;;;;;;;;5047643;28;20546;-68
2022/04/17 04:46:06;;;;;;;11.30;6.97;;;;;;;;;;5048033;28;20040;-68
2022/04/17 04:51:27;;;;;;;10.18;7.72;;;;;;;;;;5045657;28;20063;-66
2022/04/17 04:53:55;;;;;;;10.70;7.38;;;;;;;;;;5046756;28;20041;-66
2022/04/17 04:56:21;;;;;;;11.07;8.10;;;;;;;;;;5047593;28;20411;-69
2022/04/17 04:58:47;;;;;;;9.45;7.25;;;;;;;;;;5047826;28;20041;-68
2022/04/17 05:01:14;;;;;;;11.80;7.43;;;;;;;;;;5047464;28;20045;-68
2022/04/17 05:03:41;;;;;;;10.00;6.65;;;;;;;;;;5047837;28;20044;-68
2022/04/17 05:06:10;;;;;;;11.70;7.60;;;;;;;;;;5045220;28;20525;-68
2022/04/17 05:08:36;;;;;;;10.10;7.10;;;;;;;;;;5047841;28;20515;-67
2022/04/17 05:11:02;;;;;;;10.38;7.10;;;;;;;;;;5043468;28;20520;-67
2022/04/17 05:13:29;;;;;;;10.38;7.18;;;;;;;;;;5046980;28;20052;-67
2022/04/17 05:15:55;;;;;;;9.95;7.25;;;;;;;;;;5047670;28;20049;-67
2022/04/17 05:18:21;;;;;;;9.27;7.00;;;;;;;;;;5047242;28;20051;-67
2022/04/17 05:20:47;;;;;;;11.95;6.95;;;;;;;;;;5047268;28;20041;-66
2022/04/17 05:23:18;;;;;;;10.27;7.20;;;;;;;;;;5046731;28;20518;-66
2022/04/17 05:25:45;;;;;;;12.13;6.68;;;;;;;;;;5047103;28;20041;-66
2022/04/17 05:28:11;;;;;;;9.77;7.03;;;;;;;;;;5047124;28;20049;-66
2022/04/17 05:30:37;;;;;;;9.00;6.47;;;;;;;;;;5047324;28;20155;-66
2022/04/17 05:33:03;;;;;;;10.52;7.28;;;;;;;;;;5046512;28;20045;-67
2022/04/17 05:35:30;;;;;;;9.90;6.97;;;;;;;;;;5047026;28;20392;-67
2022/04/17 05:37:56;;;;;;;11.18;7.50;;;;;;;;;;5047226;28;20133;-67
2022/04/17 05:40:22;;;;;;;10.68;6.90;;;;;;;;;;5046770;28;20120;-66
2022/04/17 05:42:48;;;;;;;10.18;6.90;;;;;;;;;;5046215;28;20110;-68
2022/04/17 05:45:14;;;;;;;9.75;6.50;;;;;;;;;;5047733;28;20037;-67
2022/04/17 05:47:40;;;;;;;10.38;7.38;;;;;;;;;;5047196;28;20040;-67
2022/04/17 05:50:06;;;;;;;9.48;7.53;;;;;;;;;;5047080;28;20091;-66
2022/04/17 05:52:32;;;;;;;11.20;7.00;;;;;;;;;;5047554;28;20033;-66
2022/04/17 05:54:59;;;;;;;10.73;7.22;;;;;;;;;;5044705;28;20132;-66
2022/04/17 05:57:25;;;;;;;11.40;6.68;;;;;;;;;;5046767;28;20124;-67
2022/04/17 05:59:51;;;;;;;10.75;6.90;;;;;;;;;;5034330;28;20195;-66
2022/04/17 06:02:18;;;;;;;8.80;6.50;;;;;;;;;;5047194;28;20462;-67
2022/04/17 06:04:44;;;;;;;9.48;6.50;;;;;;;;;;5046308;28;20360;-67
2022/04/17 06:07:10;;;;;;;11.68;6.53;;;;;;;;;;5046928;28;20477;-67
2022/04/17 06:09:36;;;;;;;9.90;7.07;;;;;;;;;;5043612;28;20041;-67
2022/04/17 06:12:03;;;;;;;11.20;7.43;;;;;;;;;;5046596;28;20052;-67
2022/04/17 06:14:29;;;;;;;11.40;7.60;;;;;;;;;;5046748;28;20037;-66
2022/04/17 06:16:55;;;;;;;10.27;6.80;;;;;;;;;;5046996;28;20040;-67
2022/04/17 06:19:21;;;;;;;10.20;7.55;;;;;;;;;;5046665;28;20044;-67
2022/04/17 06:21:47;;;;;;;9.88;6.40;;;;;;;;;;5046199;28;20518;-67
2022/04/17 06:24:13;;;;;;;10.07;6.90;;;;;;;;;;5047509;28;20045;-67
2022/04/17 06:26:40;;;;;;;11.25;7.25;;;;;;;;;;5037494;28;20071;-68
2022/04/17 06:29:08;;;;;;;8.40;6.47;;;;;;;;;;5049368;28;20388;-68
2022/04/17 06:31:34;;;;;;;9.57;6.60;;;;;;;;;;5042959;28;20068;-67
2022/04/17 06:34:01;;;;;;;8.18;5.88;;;;;;;;;;5049186;28;20040;-67
2022/04/17 06:36:27;;;;;;;10.15;6.32;;;;;;;;;;5050111;28;20056;-68
2022/04/17 06:38:53;;;;;;;9.05;5.97;;;;;;;;;;5049758;28;20049;-68
2022/04/17 06:41:19;;;;;;;10.88;6.30;;;;;;;;;;5050314;28;20049;-68
2022/04/17 06:43:45;;;;;;;9.07;6.18;;;;;;;;;;5049743;28;20075;-68
2022/04/17 06:46:11;;;;;;;10.68;6.55;;;;;;;;;;5049577;28;20767;-68
2022/04/17 06:48:37;;;;;;;14.43;6.15;;;;;;;;;;5049988;28;20048;-68
2022/04/17 06:51:03;;;;;;;9.13;5.40;;;;;;;;;;5050740;28;20040;-68
2022/04/17 06:53:29;;;;;;;7.80;5.70;;;;;;;;;;5049946;28;20559;-68
2022/04/17 06:55:55;;;;;;;9.50;6.05;;;;;;;;;;5049896;28;20132;-68
2022/04/17 06:58:22;;;;;;;8.15;5.40;;;;;;;;;;5049974;28;20037;-67
2022/04/17 07:00:51;;;;;;;9.85;6.05;;;;;;;;;;5045310;28;20565;-68
2022/04/17 07:03:17;;;;;;;9.13;5.82;;;;;;;;;;5048299;28;20476;-67
2022/04/17 07:05:43;;;;;;;9.00;5.40;;;;;;;;;;5047564;28;20045;-69
2022/04/17 07:08:10;;;;;;;8.55;5.28;;;;;;;;;;5042541;28;20032;-68
2022/04/17 07:10:38;;;;;;;7.72;4.93;;;;;;;;;;5050072;28;20558;-70
2022/04/17 07:13:08;;;;;;;7.93;4.83;;;;;;;;;;5049411;28;20495;-68
2022/04/17 07:15:34;;;;;;;6.90;4.60;;;;;;;;;;5050430;28;20672;-67
2022/04/17 07:18:00;;;;;;;7.78;4.90;;;;;;;;;;5049767;28;20080;-69
2022/04/17 07:20:26;;;;;;;7.40;4.57;;;;;;;;;;5038626;28;20091;-68
2022/04/17 07:22:53;;;;;;;8.07;5.00;;;;;;;;;;5049582;28;20041;-68
2022/04/17 07:25:20;;;;;;;7.93;4.75;;;;;;;;;;5048404;28;20099;-67
2022/04/17 07:27:47;;;;;;;8.45;4.70;;;;;;;;;;5048871;28;20526;-66
2022/04/17 07:30:28;;;;;;;8.25;5.05;;;;;;;;;;5049075;28;20041;-69
2022/04/17 07:32:55;;;;;;;6.88;4.40;;;;;;;;;;5048864;28;20621;-68
2022/04/17 07:35:21;;;;;;;8.68;4.55;;;;;;;;;;5046964;28;20518;-68
2022/04/17 07:37:48;;;;;;;8.32;5.00;;;;;;;;;;5048569;28;20049;-68
2022/04/17 07:40:21;;;;;;;6.85;4.47;;;;;;;;;;5045653;28;20083;-68
2022/04/17 07:42:47;;;;;;;8.02;5.20;;;;;;;;;;5048165;28;20072;-69
2022/04/17 07:45:15;;;;;;;8.07;5.10;;;;;;;;;;5047668;28;20068;-68
2022/04/17 07:47:41;;;;;;;8.90;5.07;;;;;;;;;;5047356;28;20045;-69
2022/04/17 07:50:08;;;;;;;7.68;4.95;;;;;;;;;;5048611;28;20045;-69
2022/04/17 07:52:37;;;;;;;7.53;4.57;;;;;;;;;;5048039;28;20056;-69
2022/04/17 07:55:04;;;;;;;7.85;4.50;;;;;;;;;;5048022;28;20037;-69
2022/04/17 08:00:19;;;;;;;6.50;4.22;;;;;;;;;;5038458;28;20053;-69
2022/04/17 08:02:50;;;;;;;7.10;4.47;;;;;;;;;;5040633;28;20415;-69
2022/04/17 08:05:16;;;;;;;6.63;4.38;;;;;;;;;;5046914;28;20527;-68
2022/04/17 08:07:42;;;;;;;7.05;4.47;;;;;;;;;;5047274;28;20041;-69
2022/04/17 08:10:08;;;;;;;9.73;4.50;;;;;;;;;;5048273;28;20132;-69
2022/04/17 08:12:34;;;;;;;7.55;4.75;;;;;;;;;;5048448;28;20037;-70
2022/04/17 08:15:01;;;;;;;7.72;4.47;;;;;;;;;;5047502;28;20048;-69
2022/04/17 08:17:27;;;;;;;6.90;4.55;;;;;;;;;;5048203;28;20037;-70
2022/04/17 08:19:53;;;;;;;6.93;4.45;;;;;;;;;;5048015;28;20057;-70
2022/04/17 08:22:19;;;;;;;8.38;5.00;;;;;;;;;;5047983;28;20164;-70
2022/04/17 08:24:45;;;;;;;7.43;4.70;;;;;;;;;;5046850;28;20048;-70
2022/04/17 08:27:11;;;;;;;6.50;4.15;;;;;;;;;;5048302;28;20040;-70
2022/04/17 08:29:37;;;;;;;7.15;3.78;;;;;;;;;;5048420;28;20045;-70
2022/04/17 08:32:03;;;;;;;7.63;4.32;;;;;;;;;;5047930;28;20124;-71
2022/04/17 08:34:29;;;;;;;7.22;4.32;;;;;;;;;;5039929;28;20041;-70
2022/04/17 08:36:56;;;;;;;7.30;4.30;;;;;;;;;;5046580;28;20470;-69
2022/04/17 08:39:22;;;;;;;6.63;3.88;;;;;;;;;;5047368;28;20091;-70
2022/04/17 08:41:49;;;;;;;6.30;3.88;;;;;;;;;;5048091;28;20069;-69
2022/04/17 08:44:16;;;;;;;6.43;4.00;;;;;;;;;;5048129;28;20399;-71
2022/04/17 08:46:42;;;;;;;7.75;4.35;;;;;;;;;;5047680;28;20569;-69
2022/04/17 08:49:11;;;;;;;5.93;3.78;;;;;;;;;;5036258;28;20378;-71
2022/04/17 08:51:38;;;;;;;5.97;3.67;;;;;;;;;;5048559;28;20053;-70
2022/04/17 08:54:06;;;;;;;7.68;4.40;;;;;;;;;;5046941;28;20407;-70
2022/04/17 08:56:32;;;;;;;6.25;4.22;;;;;;;;;;5047861;28;20048;-70
2022/04/17 08:58:58;;;;;;;6.18;4.18;;;;;;;;;;5047871;28;20102;-70
2022/04/17 09:01:24;;;;;;;7.55;3.97;;;;;;;;;;5047779;28;20045;-71
2022/04/17 09:03:51;;;;;;;6.57;4.07;;;;;;;;;;5048063;28;20045;-69
2022/04/17 09:06:21;;;;;;;6.47;3.92;;;;;;;;;;5048391;28;20061;-69
2022/04/17 09:09:06;;;;;;;6.65;4.20;;;;;;;;;;5048412;28;20052;-69
2022/04/17 09:11:33;;;;;;;6.35;3.70;;;;;;;;;;5048356;28;20182;-70
2022/04/17 09:14:03;;;;;;;6.72;3.85;;;;;;;;;;5047262;28;20037;-69
2022/04/17 09:16:42;;;;;;;6.97;4.05;;;;;;;;;;5041160;28;20056;-68
2022/04/17 09:19:13;;;;;;;7.40;3.72;;;;;;;;;;5047999;28;20089;-70
2022/04/17 09:21:40;;;;;;;7.43;3.85;;;;;;;;;;5047886;28;20056;-69
2022/04/17 09:24:13;;;;;;;6.60;3.75;;;;;;;;;;5047894;28;20044;-70
2022/04/17 09:26:48;;;;;;;5.85;3.50;;;;;;;;;;5039195;28;20048;-70
2022/04/17 09:29:23;;;;;;;5.20;3.42;;;;;;;;;;5030859;28;20052;-70
2022/04/17 09:31:56;;;;;;;6.60;3.50;;;;;;;;;;5038189;28;20052;-70
2022/04/17 09:34:22;;;;;;;6.60;3.85;;;;;;;;;;5047219;28;20041;-72
2022/04/17 09:36:52;;;;;;;6.00;3.60;;;;;;;;;;5048020;28;20108;-71
2022/04/17 09:39:20;;;;;;;6.95;3.45;;;;;;;;;;5047473;28;20049;-69
2022/04/17 09:41:56;;;;;;;6.28;3.90;;;;;;;;;;5047543;28;20072;-70
2022/04/17 09:44:34;;;;;;;6.40;3.75;;;;;;;;;;5047545;28;20135;-70
2022/04/17 09:47:01;;;;;;;5.68;3.45;;;;;;;;;;5037234;28;20124;-70
2022/04/17 09:49:27;;;;;;;5.65;3.33;;;;;;;;;;5047576;28;20040;-69
2022/04/17 09:52:09;;;;;;;6.30;3.42;;;;;;;;;;5047600;28;20053;-70
2022/04/17 09:54:35;;;;;;;4.68;3.13;;;;;;;;;;5047637;28;20045;-70
2022/04/17 09:57:01;;;;;;;5.88;3.35;;;;;;;;;;5047127;28;20090;-70
2022/04/17 09:59:28;;;;;;;5.53;3.35;;;;;;;;;;5049071;28;20045;-71
2022/04/17 10:01:57;;;;;;;5.50;3.22;;;;;;;;;;5051202;28;20529;-71
2022/04/17 10:04:24;;;;;;;;;;;;;;;;;;5051805;28;20044;-71
2022/04/17 10:06:51;;;;;;;5.45;3.05;;;;;;;;;;5051546;28;20400;-72
2022/04/17 10:09:18;;;;;;;6.10;3.60;;;;;;;;;;5049851;28;20049;-71
2022/04/17 10:11:45;;;;;;;5.50;3.30;;;;;;;;;;5050042;28;20045;-71
2022/04/17 10:14:11;;;;;;;6.47;3.60;;;;;;;;;;5040759;28;20283;-71
2022/04/17 10:16:44;;;;;;;5.15;3.00;;;;;;;;;;5050705;28;20048;-72
2022/04/17 10:19:15;;;;;;;4.93;2.97;;;;;;;;;;5050102;28;20045;-72
2022/04/17 10:21:41;;;;;;;5.55;3.10;;;;;;;;;;5051783;28;20053;-71
2022/04/17 10:24:11;;;;;;;5.32;3.20;;;;;;;;;;5051686;28;20049;-71
2022/04/17 10:26:44;;;;;;;5.93;3.42;;;;;;;;;;5051244;28;20468;-70
2022/04/17 10:29:14;;;;;;;5.18;3.00;;;;;;;;;;5050410;28;20045;-72
2022/04/17 10:31:55;;;;;;;5.53;3.42;;;;;;;;;;5050732;28;20075;-71
2022/04/17 10:34:24;;;;;;;4.90;3.13;;;;;;;;;;5031054;28;20496;-70
2022/04/17 10:37:09;;;;;;;10.40;3.15;;;;;;;;;;5036812;28;20103;-70
2022/04/17 10:39:41;;;;;;;5.00;3.03;;;;;;;;;;5050772;28;20053;-72
2022/04/17 10:42:08;;;;;;;4.85;2.65;;;;;;;;;;5051004;28;20045;-71
2022/04/17 10:44:41;;;;;;;9.55;3.03;;;;;;;;;;5051092;28;20041;-69
2022/04/17 10:47:08;;;;;;;11.80;3.58;;;;;;;;;;5051040;28;20562;-70
2022/04/17 10:49:51;;;;;;;6.53;3.10;;;;;;;;;;5049824;28;20525;-69
2022/04/17 10:52:25;;;;;;;4.78;2.70;;;;;;;;;;5032855;28;20103;-70
2022/04/17 10:54:51;;;;;;;5.90;2.92;;;;;;;;;;5048349;28;20040;-69
2022/04/17 10:57:24;;;;;;;5.47;3.10;;;;;;;;;;5032748;28;20514;-71
2022/04/17 10:59:50;;;;;;;4.22;2.50;;;;;;;;;;5049667;28;20531;-70
2022/04/17 11:02:18;;;;;;;5.15;2.67;;;;;;;;;;5048797;28;20045;-71
2022/04/17 11:04:55;;;;;;;7.10;3.00;;;;;;;;;;5049621;28;20364;-70
2022/04/17 11:07:27;;;;;;;4.20;2.33;;;;;;;;;;5049438;28;20052;-69
2022/04/17 11:10:06;;;;;;;6.43;2.92;;;;;;;;;;5049068;28;20060;-70
2022/04/17 11:12:45;;;;;;;6.30;2.90;;;;;;;;;;5040457;28;20061;-69
2022/04/17 11:15:11;;;;;;;6.90;2.80;;;;;;;;;;5048675;28;20045;-70
2022/04/17 11:17:38;;;;;;;6.38;2.58;;;;;;;;;;5048979;28;20048;-68
2022/04/17 11:20:07;;;;;;;6.03;2.67;;;;;;;;;;5049390;28;20049;-69
2022/04/17 11:22:34;;;;;;;5.10;2.38;;;;;;;;;;5066791;28;20052;-68
2022/04/17 11:25:02;;;;;;;7.07;2.83;;;;;;;;;;5049190;28;20454;-69
2022/04/17 11:27:41;;;;;;;5.10;2.42;;;;;;;;;;5048283;28;20049;-70
2022/04/17 11:30:07;;;;;;;;;;;;;;;;;;5049210;28;20440;-70
2022/04/17 11:32:33;;;;;;;5.53;2.50;;;;;;;;;;5049050;28;20002;-69
2022/04/17 11:35:03;;;;;;;4.50;2.38;;;;;;;;;;5048693;28;20483;-69
2022/04/17 11:37:30;;;;;;;4.05;2.17;;;;;;;;;;5039199;28;20045;-71
2022/04/17 11:39:58;;;;;;;5.45;3.03;;;;;;;;;;5048655;28;20491;-70
2022/04/17 11:42:28;;;;;;;4.50;2.40;;;;;;;;;;5048836;28;20124;-69
2022/04/17 11:44:54;;;;;;;4.05;2.33;;;;;;;;;;5048865;28;20116;-69
2022/04/17 11:47:21;;;;;;;4.32;2.25;;;;;;;;;;5048594;28;20048;-70
2022/04/17 11:49:48;;;;;;;5.15;2.08;;;;;;;;;;5048631;28;20562;-68
2022/04/17 11:52:14;;;;;;;5.28;2.30;;;;;;;;;;5048549;28;20554;-67
2022/04/17 11:54:40;;;;;;;3.88;2.15;;;;;;;;;;5048966;28;20244;-69
2022/04/17 11:57:07;;;;;;;5.38;2.33;;;;;;;;;;5038500;28;20099;-69
2022/04/17 11:59:52;;;;;;;3.70;2.10;;;;;;;;;;5045399;28;20066;-68
2022/04/17 12:02:20;;;;;;;3.88;2.33;;;;;;;;;;5047891;28;20044;-68
2022/04/17 12:04:50;;;;;;;3.53;2.08;;;;;;;;;;5047704;28;20037;-68
2022/04/17 12:07:23;;;;;;;5.05;1.92;;;;;;;;;;5047644;28;20063;-70
2022/04/17 12:09:50;;;;;;;4.72;2.28;;;;;;;;;;5047611;28;20392;-69
2022/04/17 12:12:17;;;;;;;7.20;2.20;;;;;;;;;;5048043;28;20060;-69
2022/04/17 12:14:44;;;;;;;4.20;2.13;;;;;;;;;;5048267;28;20127;-69
2022/04/17 12:17:10;;;;;;;3.65;2.00;;;;;;;;;;5047541;28;20059;-69
2022/04/17 12:19:37;;;;;;;4.90;2.10;;;;;;;;;;5047890;28;20077;-71
2022/04/17 12:22:12;;;;;;;3.33;2.00;;;;;;;;;;5047311;28;20444;-71
2022/04/17 12:24:43;;;;;;;4.13;1.98;;;;;;;;;;5038027;28;20055;-71
2022/04/17 12:27:10;;;;;;;4.80;2.00;;;;;;;;;;5037342;28;20099;-71
2022/04/17 12:29:40;;;;;;;5.05;2.10;;;;;;;;;;5047971;28;20094;-72
2022/04/17 12:32:13;;;;;;;3.90;1.80;;;;;;;;;;5047882;28;20040;-73
2022/04/17 12:34:40;;;;;;;2.63;1.70;;;;;;;;;;5047975;28;20120;-72
2022/04/17 12:37:35;;;;;;;4.40;2.20;;;;;;;;;;5026024;28;20415;-70
2022/04/17 12:40:08;;;;;;;3.42;1.98;;;;;;;;;;5023753;28;20053;-71
2022/04/17 12:42:34;;;;;;;10.90;1.77;;;;;;;;;;5023392;28;20045;-69
2022/04/17 12:45:00;;;;;;;4.88;2.17;;;;;;;;;;5027514;28;20049;-69
2022/04/17 12:47:26;;;;;;;15.57;2.38;;;;;;;;;;5027742;28;20037;-68
2022/04/17 12:50:01;;;;;;;2.75;1.55;;;;;;;;;;5026295;28;20091;-68
2022/04/17 12:52:27;;;;;;;4.03;1.70;;;;;;;;;;5027134;28;20072;-69
2022/04/17 12:54:56;;;;;;;4.50;1.50;;;;;;;;;;5027999;28;20049;-68
2022/04/17 12:57:22;;;;;;;6.55;1.80;;;;;;;;;;5027079;28;20053;-69
2022/04/17 12:59:50;;;;;;;4.40;2.05;;;;;;;;;;5027612;28;20124;-69
2022/04/17 13:02:20;;;;;;;5.45;2.00;;;;;;;;;;5027806;28;20125;-68
2022/04/17 13:04:47;;;;;;;4.68;1.73;;;;;;;;;;5027648;28;20566;-69
2022/04/17 13:07:14;;;;;;;6.45;1.63;;;;;;;;;;5027408;28;20049;-69
2022/04/17 13:10:09;;;;;;;5.18;1.58;;;;;;;;;;5027441;28;20047;-69
2022/04/17 13:12:36;;;;;;;4.10;1.85;;;;;;;;;;5009095;28;20078;-70
2022/04/17 13:15:06;;;;;;;3.17;1.50;;;;;;;;;;5025066;28;20041;-69
2022/04/17 13:17:44;;;;;;;3.38;1.77;;;;;;;;;;5027339;28;20042;-69
2022/04/17 13:20:10;;;;;;;3.30;1.63;;;;;;;;;;5025791;28;20037;-69
2022/04/17 13:22:36;;;;;;;3.72;1.55;;;;;;;;;;5026693;28;20441;-68
2022/04/17 13:25:03;;;;;;;3.10;1.70;;;;;;;;;;5026187;28;20037;-68
2022/04/17 13:27:29;;;;;;;3.78;1.60;;;;;;;;;;5026969;28;20059;-68
2022/04/17 13:29:55;;;;;;;4.13;1.80;;;;;;;;;;5027228;28;20514;-68
2022/04/17 13:32:21;;;;;;;2.42;1.40;;;;;;;;;;5026558;28;20080;-70
2022/04/17 13:34:47;;;;;;;3.53;1.63;;;;;;;;;;5029064;28;20041;-69
2022/04/17 13:39:58;;;;;;;3.40;1.52;;;;;;;;;;5050051;28;20106;-70
2022/04/17 13:42:24;;;;;;;3.65;1.55;;;;;;;;;;5050845;28;20457;-70
2022/04/17 13:44:50;;;;;;;3.58;1.70;;;;;;;;;;5049887;28;20083;-70
2022/04/17 13:47:17;;;;;;;3.63;1.50;;;;;;;;;;5049727;28;20069;-69
2022/04/17 13:49:43;;;;;;;3.25;1.60;;;;;;;;;;5022759;28;20084;-69
2022/04/17 13:52:10;;;;;;;2.85;1.45;;;;;;;;;;5041559;28;20083;-69
2022/04/17 13:54:36;;;;;;;2.70;1.60;;;;;;;;;;5044062;28;20045;-69
2022/04/17 13:57:03;;;;;;;3.03;1.58;;;;;;;;;;5050735;28;20048;-69
2022/04/17 13:59:30;;;;;;;3.88;1.60;;;;;;;;;;5050830;28;20102;-70
2022/04/17 14:01:56;;;;;;;3.40;1.55;;;;;;;;;;5051472;28;20124;-69
2022/04/17 14:04:22;;;;;;;1.90;1.20;;;;;;;;;;5050177;28;20041;-70
2022/04/17 14:06:49;;;;;;;4.18;1.58;;;;;;;;;;5051408;28;20392;-70
2022/04/17 14:09:15;;;;;;;4.65;1.45;;;;;;;;;;5050348;28;20059;-72
2022/04/17 14:11:41;;;;;;;2.33;1.50;;;;;;;;;;5050441;28;20067;-71
2022/04/17 14:14:08;;;;;;;3.17;1.25;;;;;;;;;;5050638;28;20044;-70
2022/04/17 14:16:34;;;;;;;3.60;1.50;;;;;;;;;;5050703;28;20548;-72
2022/04/17 14:19:02;;;;;;;2.47;1.38;;;;;;;;;;5046364;28;20041;-70
2022/04/17 14:21:28;;;;;;;3.15;1.50;;;;;;;;;;5049576;28;20060;-70
2022/04/17 14:23:54;;;;;;;2.25;1.20;;;;;;;;;;5047995;28;20064;-71
2022/04/17 14:26:21;;;;;;;4.15;1.65;;;;;;;;;;5043823;28;20562;-71
2022/04/17 14:28:47;;;;;;;2.75;1.40;;;;;;;;;;5050019;28;20121;-71
2022/04/17 14:31:13;;;;;;;3.13;1.40;;;;;;;;;;5023802;28;20091;-72
2022/04/17 14:33:39;;;;;;;2.00;1.20;;;;;;;;;;5049835;28;20044;-71
2022/04/17 14:36:05;;;;;;;3.10;1.60;;;;;;;;;;5049792;28;20045;-72
2022/04/17 14:38:31;;;;;;;3.38;1.52;;;;;;;;;;5041763;28;20052;-71
2022/04/17 14:40:57;;;;;;;2.20;1.13;;;;;;;;;;5049298;28;20033;-71
2022/04/17 14:43:23;;;;;;;2.15;1.15;;;;;;;;;;5047580;28;20045;-71
2022/04/17 14:45:50;;;;;;;2.90;1.50;;;;;;;;;;5049436;28;20126;-72
2022/04/17 14:48:16;;;;;;;3.05;1.48;;;;;;;;;;5049110;28;20403;-72
2022/04/17 14:50:43;;;;;;;3.00;1.40;;;;;;;;;;5049264;28;21223;-74
2022/04/17 14:53:09;;;;;;;2.65;1.30;;;;;;;;;;5050142;28;20127;-73
2022/04/17 14:55:37;;;;;;;3.97;1.48;;;;;;;;;;5050129;28;20045;-72
2022/04/17 14:58:05;;;;;;;3.10;1.35;;;;;;;;;;5049874;28;20041;-71